createdAt,value
2018-08-25T00:00:24.332Z,51.30
2018-08-25T00:00:56.185Z,51.40
2018-08-25T00:01:27.974Z,51.30
2018-08-25T00:01:59.810Z,51.30
2018-08-25T00:02:31.871Z,51.30
2018-08-25T00:03:03.672Z,51.20
2018-08-25T00:03:35.492Z,51.30
2018-08-25T00:04:07.294Z,51.30
2018-08-25T00:04:39.102Z,51.20
2018-08-25T00:05:10.877Z,51.20
2018-08-25T00:05:42.715Z,51.30
2018-08-25T00:06:14.492Z,51.30
2018-08-25T00:06:46.333Z,51.20
2018-08-25T00:07:18.118Z,51.20
2018-08-25T00:07:49.973Z,51.20
2018-08-25T00:08:21.888Z,51.90
2018-08-25T00:08:53.905Z,51.30
2018-08-25T00:09:25.843Z,51.10
2018-08-25T00:09:57.844Z,51.30
2018-08-25T00:10:29.713Z,51.20
2018-08-25T00:11:01.753Z,51.20
2018-08-25T00:11:33.542Z,51.10
2018-08-25T00:12:05.427Z,51.10
2018-08-25T00:12:37.304Z,51.10
2018-08-25T00:13:09.116Z,51.10
2018-08-25T00:13:40.961Z,51.10
2018-08-25T00:14:12.917Z,51.10
2018-08-25T00:14:44.756Z,51.00
2018-08-25T00:15:16.854Z,51.10
2018-08-25T00:15:48.994Z,51.10
2018-08-25T00:16:20.787Z,51.10
2018-08-25T00:16:52.637Z,51.00
2018-08-25T00:17:24.747Z,51.10
2018-08-25T00:17:56.629Z,51.10
2018-08-25T00:18:28.587Z,51.10
2018-08-25T00:19:00.395Z,51.10
2018-08-25T00:19:32.379Z,51.10
2018-08-25T00:20:04.228Z,51.10
2018-08-25T00:20:36.257Z,51.10
2018-08-25T00:21:08.145Z,51.10
2018-08-25T00:21:39.988Z,51.10
2018-08-25T00:22:11.955Z,51.10
2018-08-25T00:22:43.784Z,51.10
2018-08-25T00:23:15.745Z,51.10
2018-08-25T00:23:47.564Z,51.10
2018-08-25T00:24:19.430Z,51.00
2018-08-25T00:24:51.365Z,51.10
2018-08-25T00:25:23.248Z,51.10
2018-08-25T00:25:55.305Z,51.10
2018-08-25T00:26:27.553Z,50.90
2018-08-25T00:26:59.590Z,50.90
2018-08-25T00:27:31.433Z,51.00
2018-08-25T00:28:03.234Z,50.90
2018-08-25T00:28:35.055Z,50.90
2018-08-25T00:29:06.939Z,50.90
2018-08-25T00:29:38.729Z,50.90
2018-08-25T00:30:10.569Z,50.80
2018-08-25T00:30:42.348Z,50.20
2018-08-25T00:31:14.171Z,50.80
2018-08-25T00:31:46.176Z,50.70
2018-08-25T00:32:18.091Z,50.70
2018-08-25T00:32:49.915Z,50.70
2018-08-25T00:33:21.836Z,50.60
2018-08-25T00:33:53.642Z,50.60
2018-08-25T00:34:25.546Z,50.70
2018-08-25T00:34:57.341Z,50.60
2018-08-25T00:35:29.202Z,50.60
2018-08-25T00:36:01.066Z,50.60
2018-08-25T00:36:32.907Z,51.20
2018-08-25T00:37:04.715Z,50.50
2018-08-25T00:37:36.508Z,50.50
2018-08-25T00:38:08.291Z,50.60
2018-08-25T00:38:40.153Z,50.60
2018-08-25T00:39:11.967Z,50.50
2018-08-25T00:39:43.796Z,50.50
2018-08-25T00:40:15.580Z,50.50
2018-08-25T00:40:47.599Z,50.50
2018-08-25T00:41:19.607Z,50.50
2018-08-25T00:41:51.450Z,50.50
2018-08-25T00:42:23.248Z,50.40
2018-08-25T00:42:55.058Z,50.30
2018-08-25T00:43:26.896Z,50.40
2018-08-25T00:43:58.702Z,50.40
2018-08-25T00:44:30.575Z,50.40
2018-08-25T00:45:02.364Z,50.50
2018-08-25T00:45:34.225Z,50.50
2018-08-25T00:46:06.034Z,50.70
2018-08-25T00:46:38.007Z,50.70
2018-08-25T00:47:09.924Z,50.60
2018-08-25T00:47:41.984Z,50.60
2018-08-25T00:48:14.000Z,50.50
2018-08-25T00:48:45.864Z,50.60
2018-08-25T00:49:17.637Z,50.60
2018-08-25T00:49:49.478Z,50.60
2018-08-25T00:50:21.293Z,50.50
2018-08-25T00:50:53.111Z,50.50
2018-08-25T00:51:25.096Z,50.50
2018-08-25T00:51:57.011Z,50.50
2018-08-25T00:52:28.846Z,50.50
2018-08-25T00:53:00.856Z,50.50
2018-08-25T00:53:32.673Z,50.50
2018-08-25T00:54:04.567Z,50.40
2018-08-25T00:54:36.454Z,50.40
2018-08-25T00:55:08.298Z,50.50
2018-08-25T00:55:40.407Z,50.50
2018-08-25T00:56:12.171Z,50.80
2018-08-25T00:56:44.105Z,50.40
2018-08-25T00:57:15.985Z,50.30
2018-08-25T00:57:47.788Z,50.30
2018-08-25T00:58:19.600Z,50.20
2018-08-25T00:58:51.530Z,50.90
2018-08-25T00:59:23.409Z,50.30
2018-08-25T00:59:55.421Z,50.20
2018-08-25T01:00:27.421Z,50.20
2018-08-25T01:00:59.262Z,50.20
2018-08-25T01:01:31.069Z,50.10
2018-08-25T01:02:03.091Z,50.20
2018-08-25T01:02:34.893Z,50.20
2018-08-25T01:03:06.746Z,50.20
2018-08-25T01:03:38.584Z,50.20
2018-08-25T01:04:10.555Z,50.20
2018-08-25T01:04:42.459Z,50.20
2018-08-25T01:05:14.387Z,50.20
2018-08-25T01:05:46.270Z,50.20
2018-08-25T01:06:18.250Z,50.50
2018-08-25T01:06:50.277Z,50.30
2018-08-25T01:07:22.510Z,50.10
2018-08-25T01:07:54.352Z,50.20
2018-08-25T01:08:26.527Z,50.20
2018-08-25T01:08:58.348Z,50.30
2018-08-25T01:09:30.347Z,50.20
2018-08-25T01:10:02.206Z,50.30
2018-08-25T01:10:34.077Z,50.20
2018-08-25T01:11:05.877Z,50.10
2018-08-25T01:11:37.699Z,50.20
2018-08-25T01:12:09.568Z,50.20
2018-08-25T01:12:41.546Z,50.20
2018-08-25T01:13:13.404Z,50.20
2018-08-25T01:13:45.369Z,50.20
2018-08-25T01:14:17.207Z,50.20
2018-08-25T01:14:49.028Z,49.70
2018-08-25T01:15:20.982Z,50.20
2018-08-25T01:15:52.768Z,50.20
2018-08-25T01:16:24.608Z,50.20
2018-08-25T01:16:56.508Z,50.00
2018-08-25T01:17:28.443Z,50.00
2018-08-25T01:18:00.278Z,50.10
2018-08-25T01:18:32.118Z,50.10
2018-08-25T01:19:03.954Z,49.60
2018-08-25T01:19:35.763Z,50.70
2018-08-25T01:20:07.607Z,50.10
2018-08-25T01:20:39.488Z,50.00
2018-08-25T01:21:11.265Z,50.10
2018-08-25T01:21:43.098Z,50.00
2018-08-25T01:22:14.959Z,50.10
2018-08-25T01:22:47.198Z,50.20
2018-08-25T01:23:19.138Z,50.10
2018-08-25T01:23:51.137Z,50.10
2018-08-25T01:24:23.088Z,50.10
2018-08-25T01:24:55.248Z,50.00
2018-08-25T01:25:27.088Z,50.10
2018-08-25T01:25:58.889Z,50.00
2018-08-25T01:26:30.685Z,50.00
2018-08-25T01:27:02.600Z,50.10
2018-08-25T01:27:34.408Z,50.10
2018-08-25T01:28:06.217Z,50.10
2018-08-25T01:28:38.090Z,50.10
2018-08-25T01:29:10.117Z,50.20
2018-08-25T01:29:41.948Z,50.20
2018-08-25T01:30:13.916Z,50.10
2018-08-25T01:30:45.737Z,50.20
2018-08-25T01:31:17.563Z,50.20
2018-08-25T01:31:49.381Z,50.30
2018-08-25T01:32:21.211Z,50.30
2018-08-25T01:32:53.010Z,50.30
2018-08-25T01:33:24.859Z,50.30
2018-08-25T01:33:56.780Z,51.00
2018-08-25T01:34:28.681Z,50.40
2018-08-25T01:35:00.649Z,50.50
2018-08-25T01:35:32.466Z,50.50
2018-08-25T01:36:04.329Z,50.50
2018-08-25T01:36:36.189Z,50.60
2018-08-25T01:37:07.992Z,50.70
2018-08-25T01:37:39.889Z,50.70
2018-08-25T01:38:11.704Z,50.70
2018-08-25T01:38:43.770Z,50.80
2018-08-25T01:39:15.589Z,50.80
2018-08-25T01:39:47.438Z,50.80
2018-08-25T01:40:19.364Z,50.90
2018-08-25T01:40:51.228Z,50.90
2018-08-25T01:41:23.036Z,50.90
2018-08-25T01:41:54.835Z,51.00
2018-08-25T01:42:26.749Z,51.00
2018-08-25T01:42:58.561Z,51.00
2018-08-25T01:43:30.411Z,51.10
2018-08-25T01:44:02.448Z,51.00
2018-08-25T01:44:34.399Z,51.10
2018-08-25T01:45:06.198Z,51.10
2018-08-25T01:45:38.228Z,51.10
2018-08-25T01:46:10.180Z,51.60
2018-08-25T01:46:42.148Z,51.10
2018-08-25T01:47:14.281Z,51.10
2018-08-25T01:47:46.238Z,51.20
2018-08-25T01:48:18.371Z,51.20
2018-08-25T01:48:50.604Z,51.20
2018-08-25T01:49:22.688Z,51.10
2018-08-25T01:49:54.569Z,51.20
2018-08-25T01:50:26.448Z,51.20
2018-08-25T01:50:58.272Z,51.70
2018-08-25T01:51:30.236Z,51.20
2018-08-25T01:52:02.088Z,51.30
2018-08-25T01:52:33.927Z,51.30
2018-08-25T01:53:05.780Z,51.30
2018-08-25T01:53:37.928Z,51.30
2018-08-25T01:54:10.015Z,51.30
2018-08-25T01:54:41.972Z,51.30
2018-08-25T01:55:13.778Z,51.20
2018-08-25T01:55:45.585Z,51.20
2018-08-25T01:56:17.479Z,51.30
2018-08-25T01:56:49.312Z,51.20
2018-08-25T01:57:21.247Z,51.20
2018-08-25T01:57:53.144Z,51.30
2018-08-25T01:58:25.047Z,51.30
2018-08-25T01:58:56.840Z,51.30
2018-08-25T01:59:28.716Z,51.30
2018-08-25T02:00:00.555Z,51.30
2018-08-25T02:00:32.405Z,51.90
2018-08-25T02:01:04.196Z,51.30
2018-08-25T02:01:35.998Z,51.30
2018-08-25T02:02:07.801Z,51.40
2018-08-25T02:02:39.660Z,51.40
2018-08-25T02:03:11.556Z,51.40
2018-08-25T02:03:43.440Z,51.50
2018-08-25T02:04:15.458Z,51.50
2018-08-25T02:04:47.423Z,51.50
2018-08-25T02:05:19.297Z,51.50
2018-08-25T02:05:51.256Z,51.50
2018-08-25T02:06:23.153Z,51.50
2018-08-25T02:06:55.037Z,51.50
2018-08-25T02:07:27.006Z,51.50
2018-08-25T02:07:58.917Z,51.40
2018-08-25T02:08:30.747Z,51.50
2018-08-25T02:09:02.612Z,51.50
2018-08-25T02:09:34.496Z,51.50
2018-08-25T02:10:06.366Z,51.50
2018-08-25T02:10:38.263Z,51.50
2018-08-25T02:11:10.196Z,51.50
2018-08-25T02:11:42.176Z,51.50
2018-08-25T02:12:14.069Z,51.40
2018-08-25T02:12:46.262Z,51.50
2018-08-25T02:13:18.126Z,51.50
2018-08-25T02:13:49.967Z,51.40
2018-08-25T02:14:21.896Z,51.40
2018-08-25T02:14:53.666Z,51.40
2018-08-25T02:15:25.516Z,51.40
2018-08-25T02:15:57.364Z,51.40
2018-08-25T02:16:29.211Z,51.40
2018-08-25T02:17:01.166Z,51.40
2018-08-25T02:17:33.065Z,51.40
2018-08-25T02:18:04.863Z,51.50
2018-08-25T02:18:36.786Z,51.50
2018-08-25T02:19:08.855Z,51.40
2018-08-25T02:19:40.676Z,51.50
2018-08-25T02:20:12.725Z,51.50
2018-08-25T02:20:44.607Z,51.50
2018-08-25T02:21:16.438Z,51.40
2018-08-25T02:21:48.285Z,51.40
2018-08-25T02:22:20.229Z,51.40
2018-08-25T02:22:52.248Z,51.40
2018-08-25T02:23:24.214Z,51.40
2018-08-25T02:23:56.046Z,51.30
2018-08-25T02:24:27.951Z,51.20
2018-08-25T02:24:59.825Z,51.30
2018-08-25T02:25:44.374Z,51.30
2018-08-25T02:26:16.235Z,51.30
2018-08-25T02:26:48.163Z,51.40
2018-08-25T02:27:19.998Z,51.30
2018-08-25T02:27:51.916Z,52.00
2018-08-25T02:28:24.133Z,51.30
2018-08-25T02:28:56.075Z,51.20
2018-08-25T02:29:27.881Z,51.20
2018-08-25T02:29:59.665Z,51.30
2018-08-25T02:30:31.683Z,51.10
2018-08-25T02:31:03.704Z,51.20
2018-08-25T02:31:35.555Z,51.20
2018-08-25T02:32:07.452Z,51.20
2018-08-25T02:32:39.244Z,51.20
2018-08-25T02:33:11.088Z,51.10
2018-08-25T02:33:43.065Z,51.20
2018-08-25T02:34:14.894Z,51.20
2018-08-25T02:34:46.726Z,51.20
2018-08-25T02:35:18.606Z,51.20
2018-08-25T02:35:50.537Z,51.20
2018-08-25T02:36:22.464Z,51.10
2018-08-25T02:36:54.424Z,51.20
2018-08-25T02:37:26.410Z,51.10
2018-08-25T02:37:58.274Z,51.10
2018-08-25T02:38:30.111Z,51.20
2018-08-25T02:39:02.154Z,51.20
2018-08-25T02:39:33.974Z,51.20
2018-08-25T02:40:06.013Z,51.10
2018-08-25T02:40:38.005Z,51.10
2018-08-25T02:41:09.893Z,51.20
2018-08-25T02:41:41.888Z,51.20
2018-08-25T02:42:13.776Z,51.20
2018-08-25T02:42:45.709Z,51.10
2018-08-25T02:43:17.535Z,51.20
2018-08-25T02:43:49.515Z,51.10
2018-08-25T02:44:21.341Z,51.00
2018-08-25T02:44:53.350Z,51.10
2018-08-25T02:45:25.225Z,51.70
2018-08-25T02:45:57.054Z,51.10
2018-08-25T02:46:28.884Z,51.10
2018-08-25T02:47:00.718Z,51.10
2018-08-25T02:47:32.564Z,51.00
2018-08-25T02:48:04.515Z,51.00
2018-08-25T02:48:36.405Z,51.10
2018-08-25T02:49:08.250Z,51.10
2018-08-25T02:49:40.243Z,51.00
2018-08-25T02:50:12.074Z,51.00
2018-08-25T02:50:43.858Z,51.00
2018-08-25T02:51:16.099Z,51.00
2018-08-25T02:51:48.020Z,50.80
2018-08-25T02:52:19.923Z,51.60
2018-08-25T02:52:52.000Z,50.80
2018-08-25T02:53:23.844Z,50.70
2018-08-25T02:53:55.674Z,50.70
2018-08-25T02:54:27.710Z,50.70
2018-08-25T02:54:59.529Z,50.80
2018-08-25T02:55:31.384Z,50.80
2018-08-25T02:56:03.519Z,51.00
2018-08-25T02:56:35.463Z,50.80
2018-08-25T02:57:07.292Z,50.80
2018-08-25T02:57:39.113Z,50.80
2018-08-25T02:58:10.961Z,50.60
2018-08-25T02:58:42.747Z,50.70
2018-08-25T02:59:14.643Z,50.70
2018-08-25T02:59:46.419Z,50.60
2018-08-25T03:00:18.600Z,50.70
2018-08-25T03:00:50.459Z,50.60
2018-08-25T03:01:22.255Z,50.70
2018-08-25T03:01:54.045Z,50.80
2018-08-25T03:02:25.962Z,50.70
2018-08-25T03:02:57.763Z,50.70
2018-08-25T03:03:29.572Z,50.70
2018-08-25T03:04:01.515Z,50.70
2018-08-25T03:04:33.375Z,50.60
2018-08-25T03:05:05.195Z,50.70
2018-08-25T03:05:37.072Z,50.70
2018-08-25T03:06:08.892Z,50.60
2018-08-25T03:06:40.760Z,50.60
2018-08-25T03:07:12.575Z,50.60
2018-08-25T03:07:44.381Z,50.70
2018-08-25T03:08:16.222Z,50.60
2018-08-25T03:08:48.164Z,50.60
2018-08-25T03:09:19.954Z,50.60
2018-08-25T03:09:51.795Z,50.60
2018-08-25T03:10:23.837Z,50.60
2018-08-25T03:10:55.674Z,51.30
2018-08-25T03:11:27.763Z,50.60
2018-08-25T03:11:59.725Z,50.60
2018-08-25T03:12:31.582Z,50.70
2018-08-25T03:13:03.449Z,50.60
2018-08-25T03:13:35.506Z,50.60
2018-08-25T03:14:07.515Z,50.60
2018-08-25T03:14:39.327Z,50.70
2018-08-25T03:15:11.191Z,50.70
2018-08-25T03:15:43.201Z,50.60
2018-08-25T03:16:15.130Z,50.70
2018-08-25T03:16:47.022Z,50.70
2018-08-25T03:17:18.841Z,50.60
2018-08-25T03:17:50.730Z,50.60
2018-08-25T03:18:22.666Z,50.70
2018-08-25T03:18:54.572Z,50.70
2018-08-25T03:19:26.488Z,50.60
2018-08-25T03:19:58.412Z,50.70
2018-08-25T03:20:30.176Z,50.60
2018-08-25T03:21:02.122Z,50.60
2018-08-25T03:21:34.030Z,50.60
2018-08-25T03:22:05.992Z,50.50
2018-08-25T03:22:37.805Z,50.60
2018-08-25T03:23:09.642Z,50.50
2018-08-25T03:23:41.420Z,50.60
2018-08-25T03:24:13.540Z,50.50
2018-08-25T03:24:45.494Z,51.20
2018-08-25T03:25:17.313Z,50.50
2018-08-25T03:25:49.124Z,50.50
2018-08-25T03:26:20.939Z,50.50
2018-08-25T03:26:52.741Z,50.50
2018-08-25T03:27:24.628Z,50.50
2018-08-25T03:27:56.479Z,50.50
2018-08-25T03:28:28.292Z,50.50
2018-08-25T03:29:00.072Z,50.50
2018-08-25T03:29:31.959Z,50.50
2018-08-25T03:30:03.768Z,50.60
2018-08-25T03:30:35.727Z,50.50
2018-08-25T03:31:07.650Z,50.60
2018-08-25T03:31:39.442Z,50.60
2018-08-25T03:32:11.495Z,50.60
2018-08-25T03:32:43.276Z,50.60
2018-08-25T03:33:15.128Z,50.50
2018-08-25T03:33:47.022Z,50.60
2018-08-25T03:34:19.048Z,50.70
2018-08-25T03:34:51.039Z,50.70
2018-08-25T03:35:22.944Z,50.70
2018-08-25T03:35:54.796Z,50.70
2018-08-25T03:36:26.797Z,50.80
2018-08-25T03:36:58.722Z,50.80
2018-08-25T03:37:30.621Z,50.80
2018-08-25T03:38:02.596Z,51.00
2018-08-25T03:38:34.770Z,50.80
2018-08-25T03:39:06.601Z,50.80
2018-08-25T03:39:38.416Z,50.80
2018-08-25T03:40:10.259Z,50.90
2018-08-25T03:40:42.237Z,50.80
2018-08-25T03:41:14.166Z,50.80
2018-08-25T03:41:45.981Z,50.90
2018-08-25T03:42:18.024Z,50.80
2018-08-25T03:42:49.828Z,50.90
2018-08-25T03:43:21.863Z,50.90
2018-08-25T03:43:54.182Z,51.00
2018-08-25T03:44:26.236Z,50.90
2018-08-25T03:44:58.198Z,50.90
2018-08-25T03:45:30.000Z,51.50
2018-08-25T03:46:01.838Z,50.90
2018-08-25T03:46:33.969Z,50.90
2018-08-25T03:47:05.846Z,51.00
2018-08-25T03:47:37.667Z,50.90
2018-08-25T03:48:09.682Z,51.60
2018-08-25T03:48:41.735Z,51.00
2018-08-25T03:49:13.583Z,51.00
2018-08-25T03:49:45.402Z,51.00
2018-08-25T03:50:17.467Z,51.00
2018-08-25T03:50:49.326Z,51.10
2018-08-25T03:51:21.093Z,51.00
2018-08-25T03:51:52.888Z,51.10
2018-08-25T03:52:24.661Z,51.10
2018-08-25T03:52:56.492Z,51.10
2018-08-25T03:53:28.280Z,51.10
2018-08-25T03:54:00.055Z,51.10
2018-08-25T03:54:31.840Z,51.10
2018-08-25T03:55:03.654Z,51.20
2018-08-25T03:55:35.653Z,51.10
2018-08-25T03:56:07.560Z,51.20
2018-08-25T03:56:39.424Z,51.70
2018-08-25T03:57:11.264Z,51.30
2018-08-25T03:57:43.096Z,51.30
2018-08-25T03:58:15.018Z,51.30
2018-08-25T03:58:46.829Z,51.30
2018-08-25T03:59:18.755Z,51.30
2018-08-25T03:59:50.598Z,51.30
2018-08-25T04:00:22.402Z,51.40
2018-08-25T04:00:54.209Z,51.40
2018-08-25T04:01:26.094Z,51.40
2018-08-25T04:01:58.114Z,51.40
2018-08-25T04:02:29.939Z,51.40
2018-08-25T04:03:01.768Z,51.40
2018-08-25T04:03:33.540Z,51.50
2018-08-25T04:04:05.346Z,51.60
2018-08-25T04:04:37.190Z,51.50
2018-08-25T04:05:08.982Z,51.50
2018-08-25T04:05:40.782Z,51.60
2018-08-25T04:06:12.577Z,51.50
2018-08-25T04:06:44.443Z,51.60
2018-08-25T04:07:16.458Z,51.60
2018-08-25T04:07:48.573Z,51.60
2018-08-25T04:08:20.413Z,51.60
2018-08-25T04:08:52.214Z,51.60
2018-08-25T04:09:24.208Z,51.60
2018-08-25T04:09:56.104Z,52.20
2018-08-25T04:10:28.335Z,51.60
2018-08-25T04:11:00.217Z,52.20
2018-08-25T04:11:32.096Z,51.50
2018-08-25T04:12:03.957Z,51.50
2018-08-25T04:12:35.849Z,51.60
2018-08-25T04:13:07.800Z,51.60
2018-08-25T04:13:39.665Z,51.60
2018-08-25T04:14:11.437Z,51.60
2018-08-25T04:14:43.473Z,51.50
2018-08-25T04:15:15.455Z,51.50
2018-08-25T04:15:47.441Z,51.60
2018-08-25T04:16:19.277Z,51.60
2018-08-25T04:16:51.212Z,51.60
2018-08-25T04:17:23.307Z,51.70
2018-08-25T04:17:55.412Z,51.70
2018-08-25T04:18:27.208Z,51.60
2018-08-25T04:18:59.087Z,51.50
2018-08-25T04:19:30.856Z,51.60
2018-08-25T04:20:02.708Z,51.60
2018-08-25T04:20:34.781Z,51.60
2018-08-25T04:21:06.680Z,51.60
2018-08-25T04:21:38.527Z,51.60
2018-08-25T04:22:10.338Z,52.10
2018-08-25T04:22:42.564Z,51.60
2018-08-25T04:23:14.733Z,51.60
2018-08-25T04:23:46.514Z,51.60
2018-08-25T04:24:18.349Z,51.60
2018-08-25T04:24:50.314Z,51.70
2018-08-25T04:25:22.388Z,51.60
2018-08-25T04:25:54.340Z,51.70
2018-08-25T04:26:26.222Z,51.70
2018-08-25T04:26:58.001Z,51.70
2018-08-25T04:27:29.899Z,51.70
2018-08-25T04:28:01.896Z,51.70
2018-08-25T04:28:33.724Z,51.70
2018-08-25T04:29:05.568Z,51.70
2018-08-25T04:29:37.402Z,51.70
2018-08-25T04:30:09.197Z,51.70
2018-08-25T04:30:40.988Z,51.70
2018-08-25T04:31:12.837Z,51.70
2018-08-25T04:31:44.956Z,51.70
2018-08-25T04:32:16.960Z,51.70
2018-08-25T04:32:48.989Z,51.70
2018-08-25T04:33:21.116Z,51.70
2018-08-25T04:33:53.077Z,51.70
2018-08-25T04:34:24.914Z,51.70
2018-08-25T04:34:57.016Z,51.70
2018-08-25T04:35:28.893Z,51.70
2018-08-25T04:36:00.852Z,51.70
2018-08-25T04:36:32.717Z,51.70
2018-08-25T04:37:04.621Z,51.70
2018-08-25T04:37:36.436Z,51.70
2018-08-25T04:38:08.306Z,51.70
2018-08-25T04:38:40.234Z,51.60
2018-08-25T04:39:12.183Z,51.70
2018-08-25T04:39:44.019Z,51.60
2018-08-25T04:40:16.181Z,51.70
2018-08-25T04:40:48.201Z,51.60
2018-08-25T04:41:20.043Z,51.60
2018-08-25T04:41:52.122Z,51.60
2018-08-25T04:42:23.979Z,51.60
2018-08-25T04:42:55.780Z,51.60
2018-08-25T04:43:27.593Z,51.60
2018-08-25T04:43:59.452Z,51.60
2018-08-25T04:44:31.268Z,51.60
2018-08-25T04:45:03.173Z,51.60
2018-08-25T04:45:35.136Z,51.60
2018-08-25T04:46:06.924Z,51.70
2018-08-25T04:46:38.863Z,51.60
2018-08-25T04:47:10.687Z,51.60
2018-08-25T04:47:42.728Z,51.50
2018-08-25T04:48:14.674Z,51.50
2018-08-25T04:48:46.590Z,51.50
2018-08-25T04:49:18.515Z,51.50
2018-08-25T04:49:50.433Z,51.50
2018-08-25T04:50:22.286Z,51.40
2018-08-25T04:50:54.149Z,51.40
2018-08-25T04:51:26.019Z,51.50
2018-08-25T04:51:58.301Z,51.50
2018-08-25T04:52:30.125Z,51.40
2018-08-25T04:53:01.965Z,51.50
2018-08-25T04:53:33.829Z,51.50
2018-08-25T04:54:05.674Z,51.50
2018-08-25T04:54:37.472Z,51.40
2018-08-25T04:55:09.503Z,51.40
2018-08-25T04:55:41.311Z,51.40
2018-08-25T04:56:13.129Z,52.00
2018-08-25T04:56:44.966Z,51.40
2018-08-25T04:57:17.019Z,51.30
2018-08-25T04:57:48.790Z,51.30
2018-08-25T04:58:20.576Z,51.30
2018-08-25T04:58:52.556Z,51.20
2018-08-25T04:59:24.468Z,51.30
2018-08-25T04:59:56.431Z,51.80
2018-08-25T05:00:28.365Z,51.20
2018-08-25T05:01:00.217Z,51.20
2018-08-25T05:01:32.125Z,51.10
2018-08-25T05:02:03.976Z,51.70
2018-08-25T05:02:36.001Z,51.00
2018-08-25T05:03:07.793Z,51.00
2018-08-25T05:03:39.603Z,51.00
2018-08-25T05:04:11.394Z,50.90
2018-08-25T05:04:43.594Z,51.00
2018-08-25T05:05:15.471Z,50.90
2018-08-25T05:05:47.351Z,50.80
2018-08-25T05:06:19.220Z,50.80
2018-08-25T05:06:51.022Z,50.70
2018-08-25T05:07:22.877Z,50.70
2018-08-25T05:07:54.700Z,50.20
2018-08-25T05:08:26.589Z,50.60
2018-08-25T05:08:58.378Z,50.70
2018-08-25T05:09:30.149Z,50.70
2018-08-25T05:10:02.161Z,50.60
2018-08-25T05:10:33.950Z,50.60
2018-08-25T05:11:05.980Z,50.50
2018-08-25T05:11:37.794Z,50.50
2018-08-25T05:12:09.630Z,50.50
2018-08-25T05:12:41.463Z,50.50
2018-08-25T05:13:13.261Z,50.50
2018-08-25T05:13:45.424Z,50.50
2018-08-25T05:14:17.454Z,50.50
2018-08-25T05:14:49.593Z,50.50
2018-08-25T05:15:21.400Z,50.50
2018-08-25T05:15:53.206Z,50.50
2018-08-25T05:16:25.061Z,50.80
2018-08-25T05:16:57.111Z,50.40
2018-08-25T05:17:29.071Z,50.40
2018-08-25T05:18:01.061Z,50.40
2018-08-25T05:18:32.846Z,50.40
2018-08-25T05:19:04.728Z,50.30
2018-08-25T05:19:36.557Z,50.30
2018-08-25T05:20:08.861Z,50.30
2018-08-25T05:20:40.631Z,50.30
2018-08-25T05:21:12.453Z,50.40
2018-08-25T05:21:44.329Z,50.30
2018-08-25T05:22:16.379Z,50.30
2018-08-25T05:22:48.226Z,50.20
2018-08-25T05:23:20.074Z,50.20
2018-08-25T05:23:51.885Z,50.10
2018-08-25T05:24:23.932Z,50.20
2018-08-25T05:24:55.845Z,50.10
2018-08-25T05:25:27.689Z,50.20
2018-08-25T05:25:59.474Z,50.20
2018-08-25T05:26:31.437Z,50.20
2018-08-25T05:27:03.201Z,50.20
2018-08-25T05:27:35.066Z,50.20
2018-08-25T05:28:07.079Z,50.20
2018-08-25T05:28:39.014Z,50.10
2018-08-25T05:29:11.043Z,50.10
2018-08-25T05:29:42.900Z,50.00
2018-08-25T05:30:14.703Z,50.10
2018-08-25T05:30:46.577Z,50.00
2018-08-25T05:31:18.488Z,50.00
2018-08-25T05:31:50.263Z,49.90
2018-08-25T05:32:22.289Z,49.90
2018-08-25T05:32:54.234Z,49.90
2018-08-25T05:33:26.135Z,49.90
2018-08-25T05:33:57.956Z,49.90
2018-08-25T05:34:29.807Z,50.00
2018-08-25T05:35:02.003Z,49.90
2018-08-25T05:35:34.082Z,49.90
2018-08-25T05:36:05.889Z,49.90
2018-08-25T05:36:37.701Z,49.80
2018-08-25T05:37:09.562Z,49.90
2018-08-25T05:37:41.571Z,49.80
2018-08-25T05:38:13.374Z,49.80
2018-08-25T05:38:45.232Z,49.80
2018-08-25T05:39:17.112Z,49.80
2018-08-25T05:39:48.912Z,49.80
2018-08-25T05:40:20.807Z,49.70
2018-08-25T05:40:52.655Z,49.80
2018-08-25T05:41:24.477Z,49.70
2018-08-25T05:41:56.531Z,49.70
2018-08-25T05:42:28.403Z,49.70
2018-08-25T05:43:00.197Z,49.80
2018-08-25T05:43:32.014Z,49.70
2018-08-25T05:44:03.821Z,49.70
2018-08-25T05:44:35.898Z,49.70
2018-08-25T05:45:07.817Z,49.70
2018-08-25T05:45:39.653Z,49.70
2018-08-25T05:46:11.441Z,49.70
2018-08-25T05:46:43.240Z,49.70
2018-08-25T05:47:15.037Z,49.70
2018-08-25T05:47:46.887Z,49.60
2018-08-25T05:48:18.884Z,49.70
2018-08-25T05:48:50.743Z,49.60
2018-08-25T05:49:22.568Z,49.60
2018-08-25T05:49:54.661Z,49.60
2018-08-25T05:50:26.590Z,49.70
2018-08-25T05:50:58.389Z,49.60
2018-08-25T05:51:30.261Z,49.60
2018-08-25T05:52:02.319Z,49.50
2018-08-25T05:52:34.190Z,49.60
2018-08-25T05:53:06.212Z,49.70
2018-08-25T05:53:38.049Z,49.70
2018-08-25T05:54:10.059Z,49.60
2018-08-25T05:54:41.936Z,49.60
2018-08-25T05:55:13.723Z,49.60
2018-08-25T05:55:45.557Z,49.60
2018-08-25T05:56:17.454Z,49.70
2018-08-25T05:56:49.255Z,49.70
2018-08-25T05:57:21.341Z,49.60
2018-08-25T05:57:53.229Z,49.60
2018-08-25T05:58:25.335Z,49.60
2018-08-25T05:58:57.448Z,49.60
2018-08-25T05:59:29.443Z,49.50
2018-08-25T06:00:01.734Z,49.70
2018-08-25T06:00:33.646Z,49.50
2018-08-25T06:01:05.446Z,49.50
2018-08-25T06:01:37.500Z,49.50
2018-08-25T06:02:09.393Z,49.50
2018-08-25T06:02:41.252Z,49.50
2018-08-25T06:03:13.352Z,49.50
2018-08-25T06:03:45.153Z,49.60
2018-08-25T06:04:17.165Z,49.60
2018-08-25T06:04:49.241Z,49.50
2018-08-25T06:05:21.164Z,49.50
2018-08-25T06:05:53.111Z,49.50
2018-08-25T06:06:25.064Z,49.50
2018-08-25T06:06:57.145Z,49.50
2018-08-25T06:07:29.094Z,49.50
2018-08-25T06:08:01.060Z,49.40
2018-08-25T06:08:32.884Z,49.50
2018-08-25T06:09:04.762Z,49.40
2018-08-25T06:09:36.584Z,49.40
2018-08-25T06:10:08.534Z,49.40
2018-08-25T06:10:40.386Z,49.50
2018-08-25T06:11:12.360Z,49.40
2018-08-25T06:11:44.275Z,49.40
2018-08-25T06:12:16.324Z,49.50
2018-08-25T06:12:48.235Z,49.40
2018-08-25T06:13:20.164Z,49.40
2018-08-25T06:13:52.113Z,49.40
2018-08-25T06:14:24.024Z,49.50
2018-08-25T06:14:55.788Z,49.40
2018-08-25T06:15:27.661Z,49.40
2018-08-25T06:15:59.613Z,49.40
2018-08-25T06:16:31.509Z,49.30
2018-08-25T06:17:03.446Z,49.40
2018-08-25T06:17:35.325Z,49.40
2018-08-25T06:18:07.364Z,49.40
2018-08-25T06:18:39.483Z,49.40
2018-08-25T06:19:11.345Z,49.40
2018-08-25T06:19:43.355Z,49.40
2018-08-25T06:20:15.361Z,49.40
2018-08-25T06:20:47.273Z,49.40
2018-08-25T06:21:19.085Z,49.40
2018-08-25T06:21:50.871Z,49.40
2018-08-25T06:22:22.749Z,49.50
2018-08-25T06:22:54.529Z,49.50
2018-08-25T06:23:26.324Z,49.90
2018-08-25T06:23:58.101Z,49.30
2018-08-25T06:24:29.894Z,49.40
2018-08-25T06:25:01.722Z,49.40
2018-08-25T06:25:33.604Z,49.50
2018-08-25T06:26:05.479Z,49.50
2018-08-25T06:26:37.271Z,49.70
2018-08-25T06:27:09.117Z,49.50
2018-08-25T06:27:41.211Z,49.50
2018-08-25T06:28:13.137Z,49.30
2018-08-25T06:28:45.236Z,49.40
2018-08-25T06:29:17.103Z,49.50
2018-08-25T06:29:49.175Z,49.50
2018-08-25T06:30:21.234Z,49.50
2018-08-25T06:30:53.069Z,49.50
2018-08-25T06:31:24.971Z,49.40
2018-08-25T06:31:56.913Z,50.00
2018-08-25T06:32:28.771Z,49.40
2018-08-25T06:33:00.576Z,49.40
2018-08-25T06:33:32.512Z,49.40
2018-08-25T06:34:04.325Z,49.50
2018-08-25T06:34:36.163Z,49.40
2018-08-25T06:35:08.195Z,49.40
2018-08-25T06:35:40.098Z,49.40
2018-08-25T06:36:11.977Z,49.40
2018-08-25T06:36:44.111Z,49.40
2018-08-25T06:37:16.100Z,49.40
2018-08-25T06:37:47.896Z,49.40
2018-08-25T06:38:19.695Z,49.40
2018-08-25T06:38:51.736Z,49.40
2018-08-25T06:39:23.614Z,49.40
2018-08-25T06:39:55.624Z,49.40
2018-08-25T06:40:27.431Z,49.30
2018-08-25T06:40:59.255Z,49.30
2018-08-25T06:41:31.076Z,49.30
2018-08-25T06:42:02.905Z,49.30
2018-08-25T06:42:34.700Z,49.20
2018-08-25T06:43:06.771Z,49.30
2018-08-25T06:43:38.817Z,49.30
2018-08-25T06:44:10.922Z,49.20
2018-08-25T06:44:42.913Z,49.30
2018-08-25T06:45:14.727Z,49.30
2018-08-25T06:45:46.785Z,49.10
2018-08-25T06:46:18.603Z,49.20
2018-08-25T06:46:50.466Z,49.20
2018-08-25T06:47:22.282Z,49.10
2018-08-25T06:47:54.124Z,49.10
2018-08-25T06:48:25.902Z,49.20
2018-08-25T06:48:57.861Z,48.80
2018-08-25T06:49:29.672Z,49.10
2018-08-25T06:50:01.535Z,49.10
2018-08-25T06:50:33.320Z,49.20
2018-08-25T06:51:05.214Z,49.20